createdAt,value
2022-08-21T03:17:08.232Z,9.43
2022-08-21T03:32:14.162Z,15.75
2022-08-21T03:47:19.379Z,11.65
2022-08-21T04:02:24.881Z,13.53
2022-08-21T04:17:29.879Z,10.95
2022-08-21T04:32:35.922Z,16.90
2022-08-21T04:47:41.829Z,31.45
2022-08-21T05:02:48.806Z,18.10
2022-08-21T05:18:00.735Z,18.10
2022-08-21T05:33:02.287Z,15.65
2022-08-21T05:48:19.310Z,26.80
2022-08-21T06:03:27.106Z,27.15
2022-08-21T06:33:38.547Z,30.32
2022-08-21T06:48:43.582Z,41.70
2022-08-21T07:03:48.652Z,28.73
2022-08-21T07:18:53.709Z,8.88
2022-08-21T07:33:59.144Z,12.85
2022-08-21T07:49:04.288Z,11.05
2022-08-21T08:04:09.323Z,43.35
2022-08-21T08:19:14.304Z,14.58
2022-08-21T08:34:25.404Z,9.20
2022-08-21T08:49:33.094Z,3.47
2022-08-21T09:04:38.416Z,4.83
2022-08-21T09:19:47.335Z,4.50
2022-08-21T09:35:04.593Z,3.77
2022-08-21T09:50:18.515Z,5.73
2022-08-21T10:05:26.543Z,4.62
2022-08-21T10:35:43.311Z,4.22
2022-08-21T10:50:57.298Z,6.22
2022-08-21T11:06:24.905Z,8.43
2022-08-21T11:21:45.256Z,12.00
2022-08-21T11:37:04.808Z,14.38
2022-08-21T11:52:24.396Z,18.73
2022-08-21T12:07:35.324Z,20.02
2022-08-21T12:22:42.465Z,18.75
2022-08-21T12:37:56.255Z,22.30
2022-08-21T12:53:20.417Z,23.80
2022-08-21T13:08:17.135Z,18.50
2022-08-21T13:23:30.835Z,21.80
2022-08-21T13:38:38.657Z,20.62
2022-08-21T13:53:46.709Z,19.93
2022-08-21T14:09:03.736Z,19.47
2022-08-21T14:24:11.796Z,26.52
2022-08-21T14:39:17.623Z,20.13
2022-08-21T14:54:28.166Z,18.90
2022-08-21T15:09:29.430Z,19.32
2022-08-21T15:24:34.970Z,17.60
2022-08-21T15:39:41.537Z,17.57
2022-08-21T15:54:47.380Z,16.20
2022-08-21T16:09:52.687Z,29.02
2022-08-21T16:24:57.837Z,38.10
2022-08-21T16:40:04.969Z,45.20
2022-08-21T16:55:10.344Z,41.10
2022-08-21T17:10:17.152Z,28.77
2022-08-21T17:25:22.139Z,26.75
2022-08-21T17:40:27.246Z,10.98
2022-08-21T17:55:34.039Z,7.28
2022-08-21T18:10:42.236Z,8.48
2022-08-21T18:25:50.252Z,10.37
2022-08-21T18:40:56.995Z,7.03
2022-08-21T18:56:05.376Z,3.27
2022-08-21T19:11:09.641Z,5.55
2022-08-21T19:26:16.426Z,7.80
2022-08-21T19:41:32.700Z,12.88
2022-08-21T19:56:37.731Z,17.25
2022-08-21T20:11:45.839Z,14.05
2022-08-21T20:26:51.322Z,14.30
2022-08-21T20:41:57.495Z,17.00
2022-08-21T20:57:21.997Z,23.98
2022-08-21T21:12:30.171Z,23.45
2022-08-21T21:27:41.217Z,19.30
2022-08-21T21:42:49.407Z,25.23
2022-08-21T21:58:00.284Z,24.53
2022-08-21T22:13:27.011Z,33.73
2022-08-21T22:28:35.211Z,22.75
2022-08-21T22:43:55.266Z,0.00
2022-08-21T22:59:04.878Z,1.02
2022-08-21T23:14:14.369Z,0.37
2022-08-21T23:29:40.142Z,0.00
2022-08-21T23:44:53.921Z,0.00
